createdAt,value
2018-02-04T00:01:54.680Z,12.30
2018-02-04T00:04:22.213Z,12.20
2018-02-04T00:06:50.519Z,11.23
2018-02-04T00:09:18.023Z,9.67
2018-02-04T00:11:45.557Z,9.87
2018-02-04T00:14:13.071Z,10.83
2018-02-04T00:16:41.371Z,10.63
2018-02-04T00:19:08.874Z,10.50
2018-02-04T00:21:36.405Z,10.93
2018-02-04T00:24:03.906Z,9.63
2018-02-04T00:26:31.423Z,10.03
2018-02-04T00:28:58.923Z,9.93
2018-02-04T00:31:26.446Z,9.40
2018-02-04T00:33:54.597Z,10.17
2018-02-04T00:36:22.139Z,9.80
2018-02-04T00:38:50.414Z,10.50
2018-02-04T00:41:18.701Z,10.43
2018-02-04T00:43:46.987Z,11.07
2018-02-04T00:46:14.541Z,9.60
2018-02-04T00:48:42.097Z,11.70
2018-02-04T00:51:10.371Z,8.30
2018-02-04T00:53:38.663Z,10.10
2018-02-04T00:56:06.162Z,9.00
2018-02-04T00:58:33.683Z,8.93
2018-02-04T01:01:01.207Z,9.20
2018-02-04T01:03:28.736Z,10.43
2018-02-04T01:05:56.235Z,8.93
2018-02-04T01:08:24.543Z,10.67
2018-02-04T01:10:52.059Z,10.50
2018-02-04T01:13:19.583Z,10.37
2018-02-04T01:15:47.084Z,12.10
2018-02-04T01:18:14.604Z,11.00
2018-02-04T01:20:42.115Z,11.27
2018-02-04T01:23:10.418Z,11.03
2018-02-04T01:25:37.923Z,10.27
2018-02-04T01:28:05.427Z,9.83
2018-02-04T01:30:33.711Z,9.47
2018-02-04T01:33:01.237Z,10.60
2018-02-04T01:35:28.762Z,9.83
2018-02-04T01:37:56.267Z,10.50
2018-02-04T01:40:24.554Z,9.93
2018-02-04T01:42:52.819Z,9.20
2018-02-04T01:45:21.116Z,9.70
2018-02-04T01:48:00.490Z,10.63
2018-02-04T01:50:28.007Z,9.70
2018-02-04T01:52:56.279Z,9.43
2018-02-04T01:55:24.562Z,8.40
2018-02-04T01:57:52.849Z,10.77
2018-02-04T02:00:20.370Z,9.30
2018-02-04T02:02:47.882Z,9.17
2018-02-04T02:05:15.417Z,8.80
2018-02-04T02:07:43.696Z,9.17
2018-02-04T02:10:11.999Z,6.77
2018-02-04T02:12:39.511Z,7.53
2018-02-04T02:15:07.032Z,7.37
2018-02-04T02:17:34.539Z,7.83
2018-02-04T02:20:02.077Z,7.83
2018-02-04T02:22:29.587Z,7.83
2018-02-04T02:24:57.087Z,8.07
2018-02-04T02:27:24.603Z,8.23
2018-02-04T02:29:52.103Z,7.37
2018-02-04T02:32:19.617Z,8.27
2018-02-04T02:34:47.883Z,7.03
2018-02-04T02:37:16.163Z,7.40
2018-02-04T02:39:44.442Z,7.20
2018-02-04T02:42:12.731Z,7.13
2018-02-04T02:44:40.235Z,7.60
2018-02-04T02:47:07.756Z,7.10
2018-02-04T02:49:35.272Z,7.10
2018-02-04T02:52:02.792Z,7.20
2018-02-04T02:54:30.296Z,7.40
2018-02-04T02:56:57.819Z,6.37
2018-02-04T02:59:25.330Z,6.60
2018-02-04T03:01:53.616Z,7.17
2018-02-04T03:04:21.886Z,6.60
2018-02-04T03:06:50.193Z,7.03
2018-02-04T03:09:17.694Z,6.93
2018-02-04T03:11:45.194Z,6.80
2018-02-04T03:14:13.484Z,7.00
2018-02-04T03:16:41.001Z,7.00
2018-02-04T03:19:08.527Z,6.40
2018-02-04T03:21:36.028Z,5.73
2018-02-04T03:24:03.553Z,7.40
2018-02-04T03:26:31.059Z,7.50
2018-02-04T03:28:59.339Z,7.83
2018-02-04T03:31:27.607Z,8.00
2018-02-04T03:33:55.892Z,7.90
2018-02-04T03:36:24.157Z,7.77
2018-02-04T03:38:51.679Z,7.90
2018-02-04T03:41:19.175Z,8.33
2018-02-04T03:43:46.691Z,8.10
2018-02-04T03:46:14.201Z,7.60
2018-02-04T03:48:42.498Z,7.20
2018-02-04T03:51:09.998Z,7.83
2018-02-04T03:53:37.537Z,6.90
2018-02-04T03:56:05.038Z,6.83
2018-02-04T03:58:32.552Z,7.47
2018-02-04T04:01:00.064Z,7.47
2018-02-04T04:03:27.591Z,7.80
2018-02-04T04:05:55.106Z,7.27
2018-02-04T04:08:23.371Z,6.43
2018-02-04T04:10:51.665Z,7.13
2018-02-04T04:13:19.930Z,7.13
2018-02-04T04:15:48.214Z,8.07
2018-02-04T04:18:16.496Z,7.97
2018-02-04T04:20:44.774Z,6.73
2018-02-04T04:23:13.039Z,7.20
2018-02-04T04:25:41.337Z,6.70
2018-02-04T04:28:08.842Z,6.83
2018-02-04T04:30:36.355Z,7.10
2018-02-04T04:33:04.623Z,6.50
2018-02-04T04:35:32.928Z,7.10
2018-02-04T04:38:00.426Z,6.17
2018-02-04T04:40:27.952Z,6.80
2018-02-04T04:42:55.461Z,7.00
2018-02-04T04:45:22.982Z,6.93
2018-02-04T04:47:50.502Z,6.67
2018-02-04T04:50:18.793Z,6.50
2018-02-04T04:52:46.308Z,6.40
2018-02-04T04:55:13.812Z,7.63
2018-02-04T04:57:41.339Z,6.27
2018-02-04T05:00:08.845Z,6.27
2018-02-04T05:02:36.366Z,5.37
2018-02-04T05:05:04.631Z,6.87
2018-02-04T05:07:32.156Z,6.47
2018-02-04T05:09:59.667Z,7.23
2018-02-04T05:12:27.961Z,6.30
2018-02-04T05:14:55.459Z,6.90
2018-02-04T05:17:22.972Z,7.17
2018-02-04T05:19:51.235Z,6.00
2018-02-04T05:22:19.513Z,6.63
2018-02-04T05:24:47.779Z,6.07
2018-02-04T05:27:15.295Z,6.07
2018-02-04T05:29:42.800Z,5.47
2018-02-04T05:32:10.318Z,6.50
2018-02-04T05:34:37.819Z,5.20
2018-02-04T05:37:10.902Z,6.20
2018-02-04T05:39:38.410Z,5.17
2018-02-04T05:42:05.927Z,6.30
2018-02-04T05:44:34.208Z,5.73
2018-02-04T05:47:02.515Z,5.60
2018-02-04T05:49:30.028Z,5.10
2018-02-04T05:51:57.536Z,5.73
2018-02-04T05:54:25.050Z,5.57
2018-02-04T05:56:52.565Z,5.70
2018-02-04T05:59:20.083Z,5.20
2018-02-04T06:01:47.583Z,5.73
2018-02-04T06:04:15.107Z,5.83
2018-02-04T06:06:43.433Z,5.13
2018-02-04T06:09:11.684Z,5.50
2018-02-04T06:11:39.187Z,5.43
2018-02-04T06:14:06.704Z,6.50
2018-02-04T06:16:34.198Z,4.97
2018-02-04T06:19:01.736Z,4.50
2018-02-04T06:21:29.248Z,4.90
2018-02-04T06:23:56.766Z,5.40
2018-02-04T06:26:24.280Z,5.60
2018-02-04T06:28:52.560Z,5.17
2018-02-04T06:31:20.860Z,5.17
2018-02-04T06:33:48.371Z,5.60
2018-02-04T06:36:15.889Z,5.80
2018-02-04T06:38:43.399Z,5.73
2018-02-04T06:41:10.924Z,5.80
2018-02-04T06:43:38.487Z,5.03
2018-02-04T06:46:06.016Z,4.20
2018-02-04T06:48:33.532Z,5.13
2018-02-04T06:51:01.071Z,5.30
2018-02-04T06:53:28.591Z,5.00
2018-02-04T06:55:56.898Z,5.77
2018-02-04T06:58:24.443Z,4.87
2018-02-04T07:00:52.000Z,5.13
2018-02-04T07:03:19.565Z,5.50
2018-02-04T07:05:47.144Z,5.33
2018-02-04T07:08:14.693Z,4.90
2018-02-04T07:10:42.233Z,5.80
2018-02-04T07:13:09.819Z,5.03
2018-02-04T07:15:37.396Z,4.60
2018-02-04T07:18:04.927Z,5.30
2018-02-04T07:20:33.227Z,5.80
2018-02-04T07:23:00.778Z,4.57
2018-02-04T07:25:28.279Z,4.50
2018-02-04T07:27:55.809Z,5.10
2018-02-04T07:30:23.340Z,4.90
2018-02-04T07:32:51.667Z,5.40
2018-02-04T07:35:19.181Z,6.10
2018-02-04T07:37:47.487Z,5.30
2018-02-04T07:40:15.159Z,5.07
2018-02-04T07:42:42.678Z,6.37
2018-02-04T07:45:10.955Z,5.40
2018-02-04T07:47:39.275Z,6.07
2018-02-04T07:50:06.775Z,5.47
2018-02-04T07:52:34.288Z,5.43
2018-02-04T07:55:01.824Z,5.10
2018-02-04T07:57:30.117Z,6.60
2018-02-04T07:59:57.654Z,5.80
2018-02-04T08:02:25.924Z,5.60
2018-02-04T08:04:54.230Z,6.47
2018-02-04T08:07:21.763Z,5.80
2018-02-04T08:09:50.069Z,6.50
2018-02-04T08:12:17.580Z,5.77
2018-02-04T08:14:45.103Z,4.87
2018-02-04T08:17:12.627Z,5.30
2018-02-04T08:19:40.955Z,5.53
2018-02-04T08:22:08.468Z,5.00
2018-02-04T08:24:36.762Z,5.63
2018-02-04T08:27:04.342Z,5.80
2018-02-04T08:29:31.871Z,5.43
2018-02-04T08:32:00.182Z,4.70
2018-02-04T08:34:27.707Z,6.20
2018-02-04T08:36:56.020Z,5.07
2018-02-04T08:39:23.535Z,5.80
2018-02-04T08:41:51.103Z,5.53
2018-02-04T08:44:19.395Z,5.20
2018-02-04T08:46:47.678Z,4.70
2018-02-04T08:49:15.218Z,5.70
2018-02-04T08:51:43.516Z,5.70
2018-02-04T08:54:11.040Z,6.00
2018-02-04T08:56:38.604Z,5.60
2018-02-04T08:59:06.131Z,5.97
2018-02-04T09:01:33.687Z,6.00
2018-02-04T09:04:01.224Z,5.90
2018-02-04T09:06:28.743Z,6.00
2018-02-04T09:08:56.268Z,6.83
2018-02-04T09:11:23.784Z,6.83
2018-02-04T09:13:52.155Z,6.40
2018-02-04T09:16:19.635Z,8.00
2018-02-04T09:18:47.184Z,6.80
2018-02-04T09:21:15.474Z,7.33
2018-02-04T09:23:43.014Z,8.27
2018-02-04T09:26:11.300Z,7.50
2018-02-04T09:28:38.850Z,6.90
2018-02-04T09:31:07.126Z,7.70
2018-02-04T09:33:35.471Z,7.10
2018-02-04T09:36:02.997Z,8.70
2018-02-04T09:38:30.520Z,7.60
2018-02-04T09:40:58.020Z,7.33
2018-02-04T09:43:25.539Z,8.27
2018-02-04T09:45:53.831Z,8.53
2018-02-04T09:48:22.108Z,8.17
2018-02-04T09:50:50.421Z,8.83
2018-02-04T09:53:17.980Z,7.60
2018-02-04T09:55:45.535Z,8.10
2018-02-04T09:58:13.052Z,6.50
2018-02-04T10:00:40.615Z,8.23
2018-02-04T10:03:08.155Z,6.83
2018-02-04T10:05:35.685Z,7.20
2018-02-04T10:08:03.236Z,6.70
2018-02-04T10:10:30.783Z,6.87
2018-02-04T10:12:58.308Z,6.67
2018-02-04T10:15:25.844Z,6.00
2018-02-04T10:17:53.381Z,5.70
2018-02-04T10:20:20.911Z,5.60
2018-02-04T10:22:49.199Z,6.03
2018-02-04T10:25:17.552Z,6.90
2018-02-04T10:27:45.071Z,5.40
2018-02-04T10:30:12.617Z,6.30
2018-02-04T10:32:40.131Z,6.57
2018-02-04T10:35:08.456Z,6.10
2018-02-04T10:37:35.971Z,5.73
2018-02-04T10:40:04.277Z,5.80
2018-02-04T10:42:31.806Z,6.00
2018-02-04T10:44:59.338Z,5.37
2018-02-04T10:47:26.883Z,4.93
2018-02-04T10:49:54.410Z,5.70
2018-02-04T10:52:22.695Z,6.20
2018-02-04T10:54:50.277Z,6.57
2018-02-04T10:57:17.811Z,5.33
2018-02-04T10:59:46.078Z,5.77
2018-02-04T11:02:14.363Z,4.83
2018-02-04T11:04:42.635Z,5.30
2018-02-04T11:07:10.187Z,4.80
2018-02-04T11:09:38.471Z,5.33
2018-02-04T11:12:06.768Z,5.27
2018-02-04T11:14:34.346Z,5.40
2018-02-04T11:17:01.901Z,4.60
2018-02-04T11:19:29.404Z,5.00
2018-02-04T11:21:56.989Z,5.13
2018-02-04T11:24:24.492Z,5.03
2018-02-04T11:26:52.042Z,4.90
2018-02-04T11:29:19.574Z,4.90
2018-02-04T11:31:47.855Z,5.20
2018-02-04T11:34:16.148Z,4.80
2018-02-04T11:36:43.684Z,5.80
2018-02-04T11:39:11.971Z,4.67
2018-02-04T11:41:40.248Z,4.43
2018-02-04T11:44:08.551Z,4.53
2018-02-04T11:46:36.109Z,4.00
2018-02-04T11:49:04.428Z,4.20
2018-02-04T11:51:31.996Z,4.47
2018-02-04T11:53:59.534Z,4.17
2018-02-04T11:56:27.043Z,4.50
2018-02-04T11:58:55.352Z,3.73
2018-02-04T12:01:22.894Z,3.87
2018-02-04T12:03:51.181Z,4.37
2018-02-04T12:06:19.523Z,4.73
2018-02-04T12:08:47.023Z,3.87
2018-02-04T12:11:14.564Z,3.90
2018-02-04T12:13:42.071Z,3.87
2018-02-04T12:16:09.622Z,3.63
2018-02-04T12:18:37.168Z,4.27
2018-02-04T12:21:04.697Z,3.67
2018-02-04T12:23:32.219Z,3.80
2018-02-04T12:25:59.777Z,3.80
2018-02-04T12:28:28.015Z,3.43
2018-02-04T12:30:56.331Z,3.60
2018-02-04T12:33:24.681Z,3.70
2018-02-04T12:35:52.208Z,4.37
2018-02-04T12:38:19.772Z,3.90
2018-02-04T12:40:47.280Z,3.77
2018-02-04T12:43:14.798Z,3.47
2018-02-04T12:45:43.090Z,3.73
2018-02-04T12:48:11.391Z,5.13
2018-02-04T12:50:38.899Z,5.13
2018-02-04T12:53:06.426Z,4.73
2018-02-04T12:55:33.939Z,4.57
2018-02-04T12:58:02.240Z,4.80
2018-02-04T13:00:29.773Z,4.40
2018-02-04T13:02:58.093Z,4.40
2018-02-04T13:05:26.382Z,4.53
2018-02-04T13:07:53.939Z,3.53
2018-02-04T13:10:21.455Z,3.80
2018-02-04T13:12:49.771Z,3.10
2018-02-04T13:15:17.275Z,3.83
2018-02-04T13:17:44.823Z,3.30
2018-02-04T13:20:12.353Z,4.10
2018-02-04T13:22:39.878Z,3.57
2018-02-04T13:25:08.214Z,4.57
2018-02-04T13:27:35.733Z,4.27
2018-02-04T13:30:04.042Z,4.20
2018-02-04T13:32:31.558Z,4.27
2018-02-04T13:34:59.833Z,4.67
2018-02-04T13:37:28.120Z,4.23
2018-02-04T13:39:55.668Z,3.97
2018-02-04T13:42:23.987Z,4.07
2018-02-04T13:44:51.515Z,4.30
2018-02-04T13:47:19.795Z,3.87
2018-02-04T13:49:47.354Z,3.97
2018-02-04T13:52:15.641Z,3.80
2018-02-04T13:54:43.158Z,3.90
2018-02-04T13:57:10.716Z,3.30
2018-02-04T13:59:38.244Z,3.17
2018-02-04T14:02:05.756Z,3.53
2018-02-04T14:04:34.053Z,3.37
2018-02-04T14:07:01.604Z,4.20
2018-02-04T14:09:29.894Z,4.00
2018-02-04T14:11:57.498Z,3.33
2018-02-04T14:14:25.066Z,3.83
2018-02-04T14:16:52.593Z,3.90
2018-02-04T14:19:20.119Z,3.27
2018-02-04T14:21:48.421Z,4.20
2018-02-04T14:24:15.943Z,4.07
2018-02-04T14:26:43.475Z,4.93
2018-02-04T14:29:11.297Z,3.67
2018-02-04T14:31:39.591Z,4.17
2018-02-04T14:34:07.114Z,3.70
2018-02-04T14:36:35.466Z,4.30
2018-02-04T14:39:02.990Z,4.00
2018-02-04T14:41:30.563Z,4.10
2018-02-04T14:43:58.071Z,3.70
2018-02-04T14:46:25.594Z,3.77
2018-02-04T14:48:53.159Z,4.20
2018-02-04T14:51:20.707Z,4.13
2018-02-04T14:53:48.235Z,4.17
2018-02-04T14:56:15.767Z,3.73
2018-02-04T14:58:43.360Z,3.77
2018-02-04T15:01:10.892Z,3.67
2018-02-04T15:03:38.459Z,4.20
2018-02-04T15:06:06.751Z,4.43
2018-02-04T15:08:35.056Z,4.47
2018-02-04T15:11:02.582Z,4.33
2018-02-04T15:13:30.862Z,4.83
2018-02-04T15:15:59.142Z,4.50
2018-02-04T15:18:27.476Z,4.07
2018-02-04T15:20:54.979Z,4.07
2018-02-04T15:23:23.354Z,4.43
2018-02-04T15:25:51.629Z,5.17
2018-02-04T15:28:19.186Z,5.40
2018-02-04T15:30:47.464Z,6.10
2018-02-04T15:33:15.739Z,4.83
2018-02-04T15:35:44.027Z,5.37
2018-02-04T15:38:12.283Z,5.20
2018-02-04T15:40:39.803Z,6.30
2018-02-04T15:43:07.303Z,5.83
2018-02-04T15:45:34.835Z,6.27
2018-02-04T15:48:02.351Z,6.33
2018-02-04T15:50:29.888Z,5.57
2018-02-04T15:52:57.394Z,5.00
2018-02-04T15:55:24.933Z,4.00
2018-02-04T15:57:52.443Z,4.80
2018-02-04T16:00:19.954Z,4.73
2018-02-04T16:02:47.460Z,5.07
2018-02-04T16:05:14.979Z,4.80
2018-02-04T16:07:42.484Z,4.90
2018-02-04T16:10:09.999Z,4.83
2018-02-04T16:12:37.494Z,5.20
2018-02-04T16:15:05.011Z,6.93
2018-02-04T16:17:32.523Z,5.60
2018-02-04T16:20:00.070Z,6.03
2018-02-04T16:22:27.571Z,6.03
2018-02-04T16:24:55.871Z,7.10
2018-02-04T16:27:23.383Z,5.63
2018-02-04T16:29:50.889Z,7.60
2018-02-04T16:32:18.421Z,6.23
2018-02-04T16:34:45.919Z,6.50
2018-02-04T16:37:13.451Z,7.07
2018-02-04T16:39:41.714Z,6.70
2018-02-04T16:42:09.236Z,6.83
2018-02-04T16:44:36.731Z,7.80
2018-02-04T16:47:04.247Z,7.50
2018-02-04T16:49:31.747Z,7.70
2018-02-04T16:51:59.267Z,6.93
2018-02-04T16:54:26.768Z,8.70
2018-02-04T16:56:54.296Z,8.13
2018-02-04T16:59:21.812Z,9.07
2018-02-04T17:01:50.111Z,7.47
2018-02-04T17:04:17.619Z,7.97
2018-02-04T17:06:45.138Z,9.00
2018-02-04T17:09:12.671Z,10.97
2018-02-04T17:11:40.968Z,10.83
2018-02-04T17:14:08.497Z,10.60
2018-02-04T17:16:36.799Z,11.43
2018-02-04T17:19:04.311Z,10.87
2018-02-04T17:21:31.845Z,10.90
2018-02-04T17:23:59.372Z,10.43
2018-02-04T17:26:26.886Z,11.97
2018-02-04T17:28:54.412Z,10.70
2018-02-04T17:31:21.919Z,12.13
2018-02-04T17:33:49.447Z,10.57
2018-02-04T17:36:16.963Z,10.57
2018-02-04T17:38:45.259Z,11.57
2018-02-04T17:41:12.773Z,11.87
2018-02-04T17:43:40.389Z,12.10
2018-02-04T17:46:07.900Z,12.27
2018-02-04T17:48:35.442Z,12.37
2018-02-04T17:51:02.955Z,10.70
2018-02-04T17:53:30.504Z,11.87
2018-02-04T17:55:58.779Z,12.27
2018-02-04T17:58:27.071Z,11.50
2018-02-04T18:00:54.593Z,13.60
2018-02-04T18:03:22.103Z,11.87
2018-02-04T18:05:49.644Z,11.87
2018-02-04T18:08:17.181Z,12.80
2018-02-04T18:10:44.744Z,12.00
2018-02-04T18:13:13.113Z,12.40
2018-02-04T18:15:40.638Z,13.40
2018-02-04T18:18:08.157Z,15.30
2018-02-04T18:20:35.691Z,14.80
2018-02-04T18:23:03.196Z,14.70
2018-02-04T18:25:30.719Z,15.90
2018-02-04T18:27:58.231Z,13.57
2018-02-04T18:30:25.765Z,14.70
2018-02-04T18:32:54.047Z,14.03
2018-02-04T18:35:22.345Z,15.10
2018-02-04T18:37:49.877Z,16.30
2018-02-04T18:40:18.169Z,14.90
2018-02-04T18:42:46.440Z,17.03
2018-02-04T18:45:14.756Z,15.50
2018-02-04T18:47:42.271Z,16.93
2018-02-04T18:50:10.566Z,17.47
2018-02-04T18:52:38.857Z,18.13
2018-02-04T18:55:06.378Z,21.27
2018-02-04T18:57:33.902Z,21.33
2018-02-04T19:00:01.420Z,21.80
2018-02-04T19:02:29.706Z,21.53
2018-02-04T19:04:57.215Z,22.67
2018-02-04T19:07:24.741Z,20.67
2018-02-04T19:09:52.253Z,22.80
2018-02-04T19:12:19.775Z,21.50
2018-02-04T19:14:47.333Z,23.00
2018-02-04T19:17:14.841Z,22.57
2018-02-04T19:19:43.129Z,23.60
2018-02-04T19:22:11.420Z,28.50
2018-02-04T19:24:38.934Z,25.03
2018-02-04T19:27:06.458Z,26.73
2018-02-04T19:29:33.959Z,24.07
2018-02-04T19:32:01.483Z,24.73
2018-02-04T19:34:29.005Z,25.57
2018-02-04T19:36:57.299Z,26.90
2018-02-04T19:39:24.816Z,24.33
2018-02-04T19:41:52.359Z,23.83
2018-02-04T19:44:19.863Z,26.47
2018-02-04T19:46:48.140Z,27.47
2018-02-04T19:49:16.422Z,28.60
2018-02-04T19:51:44.695Z,25.83
2018-02-04T19:54:13.011Z,27.23
2018-02-04T19:56:40.544Z,27.70
2018-02-04T19:59:08.068Z,26.27
2018-02-04T20:01:35.588Z,27.90
2018-02-04T20:04:03.169Z,28.40
2018-02-04T20:06:30.728Z,27.93
2018-02-04T20:08:58.295Z,27.47
2018-02-04T20:11:26.594Z,27.00
2018-02-04T20:13:54.115Z,25.00
2018-02-04T20:16:21.636Z,26.07
2018-02-04T20:18:49.927Z,25.37
2018-02-04T20:21:17.453Z,24.77
2018-02-04T20:23:45.749Z,25.63
2018-02-04T20:26:14.023Z,27.17
2018-02-04T20:28:42.334Z,25.93
2018-02-04T20:31:09.865Z,25.10
2018-02-04T20:33:49.087Z,26.10
2018-02-04T20:36:17.363Z,26.50
2018-02-04T20:38:45.676Z,25.77
2018-02-04T20:41:13.203Z,26.40
2018-02-04T20:43:41.475Z,25.87
2018-02-04T20:46:08.994Z,26.33
2018-02-04T20:48:36.511Z,24.73
2018-02-04T20:51:04.845Z,25.10
2018-02-04T20:53:32.331Z,25.93
2018-02-04T20:55:59.860Z,26.03
2018-02-04T20:58:27.367Z,23.37
2018-02-04T21:00:55.660Z,24.50
2018-02-04T21:03:23.167Z,23.83
2018-02-04T21:05:50.701Z,23.47
2018-02-04T21:08:18.232Z,23.50
2018-02-04T21:10:46.558Z,22.30
2018-02-04T21:13:14.039Z,24.27
2018-02-04T21:15:41.568Z,23.03
2018-02-04T21:18:09.085Z,23.87
2018-02-04T21:20:37.366Z,22.17
2018-02-04T21:23:05.649Z,24.27
2018-02-04T21:25:33.194Z,24.50
2018-02-04T21:28:01.479Z,24.50
2018-02-04T21:30:29.774Z,22.20
2018-02-04T21:32:57.303Z,22.43
2018-02-04T21:35:25.581Z,22.53
2018-02-04T21:37:53.881Z,22.27
2018-02-04T21:40:21.392Z,23.80
2018-02-04T21:42:48.915Z,24.30
2018-02-04T21:45:16.423Z,23.20
2018-02-04T21:47:43.946Z,23.00
2018-02-04T21:50:11.457Z,23.90
2018-02-04T21:52:39.747Z,23.30
2018-02-04T21:55:08.076Z,21.20
2018-02-04T21:57:35.587Z,21.90
2018-02-04T22:00:03.859Z,21.67
2018-02-04T22:02:32.151Z,23.77
2018-02-04T22:04:59.655Z,23.47
2018-02-04T22:07:27.174Z,24.77
2018-02-04T22:09:54.691Z,22.00
2018-02-04T22:12:22.229Z,22.80
2018-02-04T22:14:49.753Z,22.10
2018-02-04T22:17:17.262Z,23.40
2018-02-04T22:19:44.788Z,22.00
2018-02-04T22:22:12.299Z,22.57
2018-02-04T22:24:39.816Z,22.23
2018-02-04T22:27:07.326Z,23.03
2018-02-04T22:29:35.623Z,24.60
2018-02-04T22:32:03.128Z,23.30
2018-02-04T22:34:30.651Z,22.63
2018-02-04T22:36:58.165Z,24.33
2018-02-04T22:39:25.690Z,22.80
2018-02-04T22:41:53.211Z,24.37
2018-02-04T22:44:21.502Z,23.40
2018-02-04T22:46:49.019Z,25.20
2018-02-04T22:49:16.539Z,25.60
2018-02-04T22:51:44.043Z,25.03
2018-02-04T22:54:11.567Z,24.93
2018-02-04T22:56:39.088Z,23.07
2018-02-04T22:59:07.379Z,25.87
2018-02-04T23:01:34.887Z,23.90
2018-02-04T23:04:02.415Z,24.00
2018-02-04T23:06:29.919Z,24.67
2018-02-04T23:08:57.467Z,23.50
2018-02-04T23:11:24.991Z,24.40
2018-02-04T23:13:52.505Z,24.10
2018-02-04T23:16:20.084Z,24.63
2018-02-04T23:18:48.372Z,25.17
2018-02-04T23:21:15.899Z,24.73
2018-02-04T23:23:43.411Z,26.97
2018-02-04T23:26:10.946Z,26.17
2018-02-04T23:28:39.214Z,25.63
2018-02-04T23:31:07.502Z,27.87
2018-02-04T23:33:35.784Z,29.30
2018-02-04T23:36:03.308Z,26.70
2018-02-04T23:38:30.823Z,26.83
2018-02-04T23:40:58.347Z,28.40
2018-02-04T23:43:26.621Z,25.87
2018-02-04T23:45:54.920Z,27.37
2018-02-04T23:48:22.441Z,26.37
2018-02-04T23:50:49.978Z,27.80
2018-02-04T23:53:17.479Z,26.83
2018-02-04T23:55:45.754Z,27.67
2018-02-04T23:58:14.046Z,29.10
